sensor_id;sensor_type;location;lat;lon;timestamp;pressure;altitude;pressure_sealevel;temperature;humidity
63907;BME280;50075;49.484;11.238;2024-02-04T00:00:16;98799.63;;;10.75;100.00
63907;BME280;50075;49.484;11.238;2024-02-04T00:02:43;98809.31;;;10.92;100.00
63907;BME280;50075;49.484;11.238;2024-02-04T00:05:08;98812.03;;;11.07;100.00
63907;BME280;50075;49.484;11.238;2024-02-04T00:07:34;98803.88;;;10.65;100.00
63907;BME280;50075;49.484;11.238;2024-02-04T00:09:59;98813.97;;;11.33;100.00
63907;BME280;50075;49.484;11.238;2024-02-04T00:12:24;98799.47;;;11.81;100.00
63907;BME280;50075;49.484;11.238;2024-02-04T00:14:50;98800.75;;;11.05;100.00
63907;BME280;50075;49.484;11.238;2024-02-04T00:17:16;98809.03;;;11.83;100.00
63907;BME280;50075;49.484;11.238;2024-02-04T00:19:42;98797.56;;;11.50;100.00
63907;BME280;50075;49.484;11.238;2024-02-04T00:22:07;98804.84;;;10.75;100.00
63907;BME280;50075;49.484;11.238;2024-02-04T00:24:33;98797.06;;;10.81;100.00
63907;BME280;50075;49.484;11.238;2024-02-04T00:26:58;98803.09;;;10.74;100.00
63907;BME280;50075;49.484;11.238;2024-02-04T00:29:23;98802.78;;;11.52;100.00
63907;BME280;50075;49.484;11.238;2024-02-04T00:31:49;98802.09;;;11.82;100.00
63907;BME280;50075;49.484;11.238;2024-02-04T00:34:14;98797.63;;;11.56;100.00
63907;BME280;50075;49.484;11.238;2024-02-04T00:36:39;98787.59;;;10.90;100.00
63907;BME280;50075;49.484;11.238;2024-02-04T00:39:05;98777.44;;;10.28;100.00
63907;BME280;50075;49.484;11.238;2024-02-04T00:41:32;98785.25;;;10.25;100.00
63907;BME280;50075;49.484;11.238;2024-02-04T00:43:57;98782.25;;;10.71;100.00
63907;BME280;50075;49.484;11.238;2024-02-04T00:46:23;98784.78;;;10.63;100.00
63907;BME280;50075;49.484;11.238;2024-02-04T00:48:48;98779.97;;;11.09;100.00
63907;BME280;50075;49.484;11.238;2024-02-04T00:51:13;98780.34;;;11.80;100.00
63907;BME280;50075;49.484;11.238;2024-02-04T00:53:42;98785.66;;;10.64;100.00
63907;BME280;50075;49.484;11.238;2024-02-04T00:56:08;98795.06;;;10.49;100.00
63907;BME280;50075;49.484;11.238;2024-02-04T00:58:35;98783.16;;;10.76;100.00
63907;BME280;50075;49.484;11.238;2024-02-04T01:01:01;98792.34;;;10.40;100.00
63907;BME280;50075;49.484;11.238;2024-02-04T01:03:26;98783.94;;;10.66;100.00
63907;BME280;50075;49.484;11.238;2024-02-04T01:05:51;98781.47;;;10.81;100.00
63907;BME280;50075;49.484;11.238;2024-02-04T01:08:17;98775.31;;;10.70;100.00
63907;BME280;50075;49.484;11.238;2024-02-04T01:10:42;98778.97;;;10.94;100.00
63907;BME280;50075;49.484;11.238;2024-02-04T01:13:07;98783.56;;;11.28;100.00
63907;BME280;50075;49.484;11.238;2024-02-04T01:15:33;98795.63;;;10.23;100.00
63907;BME280;50075;49.484;11.238;2024-02-04T01:17:58;98787.13;;;11.44;100.00
63907;BME280;50075;49.484;11.238;2024-02-04T01:20:23;98789.03;;;10.53;100.00
63907;BME280;50075;49.484;11.238;2024-02-04T01:22:49;98789.69;;;11.38;100.00
63907;BME280;50075;49.484;11.238;2024-02-04T01:25:14;98781.44;;;10.77;100.00
63907;BME280;50075;49.484;11.238;2024-02-04T01:27:39;98784.97;;;10.84;100.00
63907;BME280;50075;49.484;11.238;2024-02-04T01:30:05;98790.78;;;9.82;100.00
63907;BME280;50075;49.484;11.238;2024-02-04T01:32:31;98787.53;;;9.98;100.00
63907;BME280;50075;49.484;11.238;2024-02-04T01:34:56;98775.00;;;10.42;100.00
63907;BME280;50075;49.484;11.238;2024-02-04T01:37:22;98761.88;;;10.29;100.00
63907;BME280;50075;49.484;11.238;2024-02-04T01:39:47;98768.69;;;11.11;100.00
63907;BME280;50075;49.484;11.238;2024-02-04T01:42:12;98767.78;;;10.14;100.00
63907;BME280;50075;49.484;11.238;2024-02-04T01:44:38;98768.25;;;10.60;100.00
63907;BME280;50075;49.484;11.238;2024-02-04T01:47:03;98768.66;;;11.08;100.00
63907;BME280;50075;49.484;11.238;2024-02-04T01:49:29;98761.28;;;10.52;100.00
63907;BME280;50075;49.484;11.238;2024-02-04T01:51:55;98753.41;;;10.46;100.00
63907;BME280;50075;49.484;11.238;2024-02-04T01:54:21;98756.38;;;10.91;100.00
63907;BME280;50075;49.484;11.238;2024-02-04T01:56:52;98752.41;;;10.35;100.00
63907;BME280;50075;49.484;11.238;2024-02-04T01:59:19;98752.31;;;10.24;100.00
63907;BME280;50075;49.484;11.238;2024-02-04T02:01:45;98758.19;;;10.06;100.00
63907;BME280;50075;49.484;11.238;2024-02-04T02:04:11;98753.91;;;10.12;100.00
63907;BME280;50075;49.484;11.238;2024-02-04T02:06:38;98755.28;;;9.81;100.00
63907;BME280;50075;49.484;11.238;2024-02-04T02:09:07;98758.22;;;10.09;100.00
63907;BME280;50075;49.484;11.238;2024-02-04T02:11:43;98749.13;;;10.50;100.00
63907;BME280;50075;49.484;11.238;2024-02-04T02:14:14;98767.06;;;10.26;100.00
63907;BME280;50075;49.484;11.238;2024-02-04T02:16:41;98769.00;;;10.46;100.00
63907;BME280;50075;49.484;11.238;2024-02-04T02:22:01;98769.16;;;9.81;100.00
63907;BME280;50075;49.484;11.238;2024-02-04T02:24:35;98759.06;;;10.08;100.00
63907;BME280;50075;49.484;11.238;2024-02-04T02:27:03;98762.97;;;10.49;100.00
63907;BME280;50075;49.484;11.238;2024-02-04T02:29:30;98768.66;;;10.15;100.00
63907;BME280;50075;49.484;11.238;2024-02-04T02:31:57;98762.50;;;10.05;100.00
63907;BME280;50075;49.484;11.238;2024-02-04T02:34:23;98761.59;;;10.01;100.00
63907;BME280;50075;49.484;11.238;2024-02-04T02:37:10;98762.81;;;10.35;100.00
63907;BME280;50075;49.484;11.238;2024-02-04T02:39:46;98760.44;;;10.57;100.00
63907;BME280;50075;49.484;11.238;2024-02-04T02:42:14;98767.19;;;10.37;100.00
63907;BME280;50075;49.484;11.238;2024-02-04T02:44:41;98770.75;;;10.49;100.00
63907;BME280;50075;49.484;11.238;2024-02-04T02:47:09;98781.69;;;11.08;100.00
63907;BME280;50075;49.484;11.238;2024-02-04T02:49:35;98780.84;;;10.19;100.00
63907;BME280;50075;49.484;11.238;2024-02-04T02:52:00;98778.63;;;9.77;100.00
63907;BME280;50075;49.484;11.238;2024-02-04T02:54:25;98784.47;;;9.61;100.00
63907;BME280;50075;49.484;11.238;2024-02-04T02:56:51;98788.94;;;9.71;100.00
63907;BME280;50075;49.484;11.238;2024-02-04T02:59:16;98776.31;;;9.33;100.00
63907;BME280;50075;49.484;11.238;2024-02-04T03:01:41;98787.38;;;9.84;100.00
63907;BME280;50075;49.484;11.238;2024-02-04T03:04:07;98782.44;;;10.05;100.00
63907;BME280;50075;49.484;11.238;2024-02-04T03:06:32;98788.47;;;10.05;100.00
63907;BME280;50075;49.484;11.238;2024-02-04T03:08:58;98785.53;;;9.75;100.00
63907;BME280;50075;49.484;11.238;2024-02-04T03:11:23;98774.22;;;9.70;100.00
63907;BME280;50075;49.484;11.238;2024-02-04T03:13:48;98776.00;;;9.76;100.00
63907;BME280;50075;49.484;11.238;2024-02-04T03:16:14;98775.56;;;9.40;100.00
63907;BME280;50075;49.484;11.238;2024-02-04T03:18:40;98770.38;;;9.43;100.00
63907;BME280;50075;49.484;11.238;2024-02-04T03:21:15;98776.13;;;9.20;100.00
63907;BME280;50075;49.484;11.238;2024-02-04T03:23:42;98782.31;;;9.29;100.00
63907;BME280;50075;49.484;11.238;2024-02-04T03:26:09;98769.94;;;9.74;100.00
63907;BME280;50075;49.484;11.238;2024-02-04T03:28:35;98778.72;;;10.63;100.00
63907;BME280;50075;49.484;11.238;2024-02-04T03:31:00;98784.88;;;10.74;100.00
63907;BME280;50075;49.484;11.238;2024-02-04T03:33:25;98771.69;;;10.52;100.00
63907;BME280;50075;49.484;11.238;2024-02-04T03:35:51;98771.78;;;9.83;100.00
63907;BME280;50075;49.484;11.238;2024-02-04T03:38:16;98774.47;;;9.92;100.00
63907;BME280;50075;49.484;11.238;2024-02-04T03:40:41;98776.38;;;10.06;100.00
63907;BME280;50075;49.484;11.238;2024-02-04T03:43:08;98777.91;;;9.89;100.00
63907;BME280;50075;49.484;11.238;2024-02-04T03:45:35;98782.22;;;9.89;100.00
63907;BME280;50075;49.484;11.238;2024-02-04T03:48:00;98787.59;;;10.01;100.00
63907;BME280;50075;49.484;11.238;2024-02-04T03:50:26;98782.31;;;10.76;100.00
63907;BME280;50075;49.484;11.238;2024-02-04T03:52:51;98784.56;;;10.41;100.00
63907;BME280;50075;49.484;11.238;2024-02-04T03:55:16;98781.31;;;9.87;100.00
63907;BME280;50075;49.484;11.238;2024-02-04T03:57:41;98776.00;;;10.52;100.00
63907;BME280;50075;49.484;11.238;2024-02-04T04:00:07;98777.47;;;10.26;100.00
63907;BME280;50075;49.484;11.238;2024-02-04T04:02:33;98784.84;;;10.70;100.00
63907;BME280;50075;49.484;11.238;2024-02-04T04:04:58;98783.56;;;11.32;100.00
63907;BME280;50075;49.484;11.238;2024-02-04T04:07:23;98786.00;;;11.04;100.00
63907;BME280;50075;49.484;11.238;2024-02-04T04:09:49;98779.63;;;10.68;100.00
63907;BME280;50075;49.484;11.238;2024-02-04T04:12:14;98783.13;;;10.70;100.00
63907;BME280;50075;49.484;11.238;2024-02-04T04:14:39;98782.22;;;10.68;100.00
63907;BME280;50075;49.484;11.238;2024-02-04T04:17:05;98788.25;;;10.64;100.00
63907;BME280;50075;49.484;11.238;2024-02-04T04:19:30;98784.34;;;10.23;100.00
63907;BME280;50075;49.484;11.238;2024-02-04T04:21:58;98788.47;;;10.05;100.00
63907;BME280;50075;49.484;11.238;2024-02-04T04:24:24;98781.53;;;10.02;100.00
63907;BME280;50075;49.484;11.238;2024-02-04T04:26:50;98785.31;;;11.30;100.00
63907;BME280;50075;49.484;11.238;2024-02-04T04:29:15;98782.41;;;10.90;100.00
63907;BME280;50075;49.484;11.238;2024-02-04T04:31:40;98771.41;;;10.27;100.00
63907;BME280;50075;49.484;11.238;2024-02-04T04:34:06;98777.91;;;9.89;100.00
63907;BME280;50075;49.484;11.238;2024-02-04T04:36:31;98781.69;;;10.16;100.00
63907;BME280;50075;49.484;11.238;2024-02-04T04:38:56;98771.88;;;9.90;100.00
63907;BME280;50075;49.484;11.238;2024-02-04T04:41:22;98775.97;;;10.49;100.00
63907;BME280;50075;49.484;11.238;2024-02-04T04:43:47;98770.50;;;10.22;100.00
63907;BME280;50075;49.484;11.238;2024-02-04T04:46:13;98764.16;;;10.88;100.00
63907;BME280;50075;49.484;11.238;2024-02-04T04:48:38;98761.63;;;10.05;100.00
63907;BME280;50075;49.484;11.238;2024-02-04T04:51:03;98755.03;;;10.35;100.00
63907;BME280;50075;49.484;11.238;2024-02-04T04:53:29;98750.69;;;10.37;100.00
63907;BME280;50075;49.484;11.238;2024-02-04T04:55:54;98752.91;;;10.92;100.00
63907;BME280;50075;49.484;11.238;2024-02-04T04:58:19;98754.63;;;9.97;100.00
63907;BME280;50075;49.484;11.238;2024-02-04T05:00:45;98754.25;;;9.66;100.00
63907;BME280;50075;49.484;11.238;2024-02-04T05:03:10;98752.63;;;10.53;100.00
63907;BME280;50075;49.484;11.238;2024-02-04T05:05:36;98747.56;;;9.88;100.00
63907;BME280;50075;49.484;11.238;2024-02-04T05:08:01;98744.28;;;10.03;100.00
63907;BME280;50075;49.484;11.238;2024-02-04T05:10:26;98743.09;;;9.75;100.00
63907;BME280;50075;49.484;11.238;2024-02-04T05:12:52;98755.44;;;9.93;100.00
63907;BME280;50075;49.484;11.238;2024-02-04T05:15:17;98759.69;;;9.86;100.00
63907;BME280;50075;49.484;11.238;2024-02-04T05:17:42;98753.84;;;11.02;100.00
63907;BME280;50075;49.484;11.238;2024-02-04T05:20:08;98749.69;;;10.22;100.00
63907;BME280;50075;49.484;11.238;2024-02-04T05:22:34;98743.81;;;9.63;100.00
63907;BME280;50075;49.484;11.238;2024-02-04T05:24:59;98748.53;;;9.97;100.00
63907;BME280;50075;49.484;11.238;2024-02-04T05:27:24;98746.63;;;9.79;100.00
63907;BME280;50075;49.484;11.238;2024-02-04T05:29:50;98755.16;;;10.49;100.00
63907;BME280;50075;49.484;11.238;2024-02-04T05:32:15;98740.63;;;10.73;100.00
63907;BME280;50075;49.484;11.238;2024-02-04T05:34:40;98745.78;;;9.83;100.00
63907;BME280;50075;49.484;11.238;2024-02-04T05:37:06;98743.25;;;9.89;100.00
63907;BME280;50075;49.484;11.238;2024-02-04T05:39:31;98733.94;;;10.08;100.00
63907;BME280;50075;49.484;11.238;2024-02-04T05:41:57;98741.16;;;10.39;100.00
63907;BME280;50075;49.484;11.238;2024-02-04T05:44:22;98735.38;;;10.65;100.00
63907;BME280;50075;49.484;11.238;2024-02-04T05:46:47;98741.31;;;10.50;100.00
63907;BME280;50075;49.484;11.238;2024-02-04T05:49:13;98735.97;;;10.40;100.00
63907;BME280;50075;49.484;11.238;2024-02-04T05:51:39;98737.63;;;10.31;100.00
63907;BME280;50075;49.484;11.238;2024-02-04T05:54:05;98738.00;;;9.83;100.00
63907;BME280;50075;49.484;11.238;2024-02-04T05:56:31;98732.22;;;10.09;100.00
63907;BME280;50075;49.484;11.238;2024-02-04T05:58:56;98734.53;;;10.71;100.00
63907;BME280;50075;49.484;11.238;2024-02-04T06:01:22;98736.59;;;10.16;100.00
63907;BME280;50075;49.484;11.238;2024-02-04T06:03:47;98728.44;;;9.79;100.00
63907;BME280;50075;49.484;11.238;2024-02-04T06:06:16;98732.34;;;10.20;100.00
63907;BME280;50075;49.484;11.238;2024-02-04T06:08:43;98751.56;;;10.36;100.00
63907;BME280;50075;49.484;11.238;2024-02-04T06:11:12;98741.97;;;9.53;100.00
63907;BME280;50075;49.484;11.238;2024-02-04T06:13:42;98729.84;;;9.55;100.00
63907;BME280;50075;49.484;11.238;2024-02-04T06:16:08;98732.81;;;9.83;100.00
63907;BME280;50075;49.484;11.238;2024-02-04T06:18:35;98732.88;;;9.21;100.00
63907;BME280;50075;49.484;11.238;2024-02-04T06:21:01;98731.16;;;9.93;100.00
63907;BME280;50075;49.484;11.238;2024-02-04T06:23:27;98729.09;;;9.62;100.00
63907;BME280;50075;49.484;11.238;2024-02-04T06:25:52;98723.34;;;9.91;100.00
63907;BME280;50075;49.484;11.238;2024-02-04T06:28:17;98730.44;;;9.32;100.00
63907;BME280;50075;49.484;11.238;2024-02-04T06:30:43;98733.25;;;9.49;100.00
63907;BME280;50075;49.484;11.238;2024-02-04T06:33:08;98735.38;;;9.81;100.00
63907;BME280;50075;49.484;11.238;2024-02-04T06:35:33;98739.63;;;9.74;100.00
63907;BME280;50075;49.484;11.238;2024-02-04T06:37:59;98732.19;;;10.06;100.00
63907;BME280;50075;49.484;11.238;2024-02-04T06:40:24;98743.47;;;9.36;100.00
63907;BME280;50075;49.484;11.238;2024-02-04T06:42:50;98741.41;;;9.12;100.00
63907;BME280;50075;49.484;11.238;2024-02-04T06:45:15;98740.41;;;9.67;100.00
63907;BME280;50075;49.484;11.238;2024-02-04T06:47:43;98743.63;;;8.85;100.00
63907;BME280;50075;49.484;11.238;2024-02-04T06:50:10;98742.25;;;9.11;100.00
63907;BME280;50075;49.484;11.238;2024-02-04T06:52:48;98747.19;;;9.56;100.00
63907;BME280;50075;49.484;11.238;2024-02-04T06:55:13;98750.81;;;9.69;100.00
63907;BME280;50075;49.484;11.238;2024-02-04T06:57:38;98745.69;;;9.10;100.00
63907;BME280;50075;49.484;11.238;2024-02-04T07:00:05;98746.28;;;9.52;100.00
63907;BME280;50075;49.484;11.238;2024-02-04T07:02:33;98743.09;;;9.10;100.00
63907;BME280;50075;49.484;11.238;2024-02-04T07:04:58;98743.06;;;9.07;100.00
63907;BME280;50075;49.484;11.238;2024-02-04T07:07:23;98741.69;;;10.05;100.00
63907;BME280;50075;49.484;11.238;2024-02-04T07:09:49;98741.34;;;9.09;100.00
63907;BME280;50075;49.484;11.238;2024-02-04T07:12:14;98751.38;;;8.87;100.00
63907;BME280;50075;49.484;11.238;2024-02-04T07:14:39;98743.59;;;9.44;100.00
63907;BME280;50075;49.484;11.238;2024-02-04T07:17:05;98753.88;;;9.38;100.00
63907;BME280;50075;49.484;11.238;2024-02-04T07:19:30;98745.16;;;9.33;100.00
63907;BME280;50075;49.484;11.238;2024-02-04T07:21:55;98753.00;;;9.36;100.00
63907;BME280;50075;49.484;11.238;2024-02-04T07:24:21;98747.16;;;9.54;100.00
63907;BME280;50075;49.484;11.238;2024-02-04T07:26:46;98737.94;;;10.62;100.00
63907;BME280;50075;49.484;11.238;2024-02-04T07:29:15;98732.66;;;9.72;100.00
63907;BME280;50075;49.484;11.238;2024-02-04T07:31:40;98722.41;;;9.16;100.00
63907;BME280;50075;49.484;11.238;2024-02-04T07:34:05;98724.72;;;9.61;100.00
63907;BME280;50075;49.484;11.238;2024-02-04T07:36:31;98729.09;;;9.65;100.00
63907;BME280;50075;49.484;11.238;2024-02-04T07:38:56;98729.41;;;9.20;100.00
63907;BME280;50075;49.484;11.238;2024-02-04T07:41:22;98724.72;;;10.40;100.00
63907;BME280;50075;49.484;11.238;2024-02-04T07:43:47;98732.31;;;10.21;100.00
63907;BME280;50075;49.484;11.238;2024-02-04T07:46:13;98739.53;;;10.46;100.00
63907;BME280;50075;49.484;11.238;2024-02-04T07:48:39;98740.03;;;10.12;100.00
63907;BME280;50075;49.484;11.238;2024-02-04T07:51:04;98739.22;;;10.16;100.00
63907;BME280;50075;49.484;11.238;2024-02-04T07:53:30;98738.09;;;9.92;100.00
63907;BME280;50075;49.484;11.238;2024-02-04T07:55:55;98730.97;;;10.56;100.00
63907;BME280;50075;49.484;11.238;2024-02-04T07:58:21;98727.63;;;9.83;100.00
63907;BME280;50075;49.484;11.238;2024-02-04T08:00:46;98727.72;;;9.94;100.00
63907;BME280;50075;49.484;11.238;2024-02-04T08:03:12;98725.28;;;10.11;100.00
63907;BME280;50075;49.484;11.238;2024-02-04T08:05:37;98728.44;;;9.79;100.00
63907;BME280;50075;49.484;11.238;2024-02-04T08:08:03;98728.91;;;10.25;100.00
63907;BME280;50075;49.484;11.238;2024-02-04T08:10:29;98728.28;;;9.69;100.00
63907;BME280;50075;49.484;11.238;2024-02-04T08:12:54;98728.53;;;9.91;100.00
63907;BME280;50075;49.484;11.238;2024-02-04T08:15:20;98720.22;;;10.23;100.00
63907;BME280;50075;49.484;11.238;2024-02-04T08:17:45;98729.06;;;10.42;100.00
63907;BME280;50075;49.484;11.238;2024-02-04T08:20:11;98730.13;;;10.60;100.00
63907;BME280;50075;49.484;11.238;2024-02-04T08:22:37;98731.19;;;9.96;100.00
63907;BME280;50075;49.484;11.238;2024-02-04T08:25:03;98737.16;;;10.74;100.00
63907;BME280;50075;49.484;11.238;2024-02-04T08:27:29;98733.84;;;10.97;100.00
63907;BME280;50075;49.484;11.238;2024-02-04T08:29:54;98733.56;;;10.56;100.00
63907;BME280;50075;49.484;11.238;2024-02-04T08:32:20;98730.91;;;10.48;100.00
63907;BME280;50075;49.484;11.238;2024-02-04T08:34:46;98724.84;;;10.51;100.00
63907;BME280;50075;49.484;11.238;2024-02-04T08:37:11;98728.44;;;10.65;100.00
63907;BME280;50075;49.484;11.238;2024-02-04T08:39:36;98733.41;;;11.71;100.00
63907;BME280;50075;49.484;11.238;2024-02-04T08:42:02;98725.69;;;10.51;100.00
63907;BME280;50075;49.484;11.238;2024-02-04T08:44:27;98733.06;;;11.10;100.00
63907;BME280;50075;49.484;11.238;2024-02-04T08:46:53;98730.56;;;11.19;100.00
63907;BME280;50075;49.484;11.238;2024-02-04T08:49:18;98730.66;;;11.40;100.00
63907;BME280;50075;49.484;11.238;2024-02-04T08:51:43;98729.78;;;11.41;100.00
63907;BME280;50075;49.484;11.238;2024-02-04T08:54:08;98735.66;;;11.05;100.00
63907;BME280;50075;49.484;11.238;2024-02-04T08:56:34;98728.09;;;11.43;100.00
63907;BME280;50075;49.484;11.238;2024-02-04T08:58:59;98732.78;;;10.65;100.00
63907;BME280;50075;49.484;11.238;2024-02-04T09:01:26;98740.75;;;10.85;100.00
63907;BME280;50075;49.484;11.238;2024-02-04T09:03:52;98745.59;;;11.77;100.00
63907;BME280;50075;49.484;11.238;2024-02-04T09:06:18;98742.97;;;11.72;100.00
63907;BME280;50075;49.484;11.238;2024-02-04T09:08:43;98745.66;;;11.97;100.00
63907;BME280;50075;49.484;11.238;2024-02-04T09:11:08;98747.56;;;12.70;100.00
63907;BME280;50075;49.484;11.238;2024-02-04T09:13:34;98751.88;;;12.30;100.00
63907;BME280;50075;49.484;11.238;2024-02-04T09:15:59;98744.06;;;12.79;100.00
63907;BME280;50075;49.484;11.238;2024-02-04T09:18:24;98732.72;;;12.20;100.00
63907;BME280;50075;49.484;11.238;2024-02-04T09:20:50;98723.06;;;11.99;100.00
63907;BME280;50075;49.484;11.238;2024-02-04T09:23:15;98727.22;;;11.49;100.00
63907;BME280;50075;49.484;11.238;2024-02-04T09:25:41;98722.06;;;11.55;100.00
63907;BME280;50075;49.484;11.238;2024-02-04T09:28:06;98722.09;;;11.70;100.00
63907;BME280;50075;49.484;11.238;2024-02-04T09:30:32;98721.25;;;11.75;100.00
63907;BME280;50075;49.484;11.238;2024-02-04T09:32:57;98719.34;;;11.38;100.00
63907;BME280;50075;49.484;11.238;2024-02-04T09:35:22;98720.34;;;11.63;100.00
63907;BME280;50075;49.484;11.238;2024-02-04T09:37:48;98715.19;;;11.80;100.00
63907;BME280;50075;49.484;11.238;2024-02-04T09:40:14;98703.00;;;11.68;100.00
63907;BME280;50075;49.484;11.238;2024-02-04T09:42:40;98714.28;;;11.72;100.00
63907;BME280;50075;49.484;11.238;2024-02-04T09:45:06;98704.75;;;11.80;100.00
63907;BME280;50075;49.484;11.238;2024-02-04T09:47:32;98706.66;;;12.48;100.00
63907;BME280;50075;49.484;11.238;2024-02-04T09:49:59;98699.66;;;12.07;100.00
63907;BME280;50075;49.484;11.238;2024-02-04T09:52:33;98701.97;;;11.30;100.00
63907;BME280;50075;49.484;11.238;2024-02-04T09:55:02;98707.16;;;11.27;100.00
63907;BME280;50075;49.484;11.238;2024-02-04T09:57:31;98707.09;;;11.21;100.00
63907;BME280;50075;49.484;11.238;2024-02-04T09:59:58;98715.34;;;12.26;100.00
63907;BME280;50075;49.484;11.238;2024-02-04T10:02:24;98709.16;;;11.89;100.00
63907;BME280;50075;49.484;11.238;2024-02-04T10:04:49;98708.03;;;11.31;100.00
63907;BME280;50075;49.484;11.238;2024-02-04T10:07:15;98707.50;;;12.08;100.00
63907;BME280;50075;49.484;11.238;2024-02-04T10:09:43;98708.38;;;12.23;100.00
63907;BME280;50075;49.484;11.238;2024-02-04T10:12:09;98696.22;;;12.44;100.00
63907;BME280;50075;49.484;11.238;2024-02-04T10:14:34;98696.06;;;13.42;100.00
63907;BME280;50075;49.484;11.238;2024-02-04T10:17:00;98698.81;;;12.11;100.00
63907;BME280;50075;49.484;11.238;2024-02-04T10:19:25;98698.81;;;12.50;100.00
63907;BME280;50075;49.484;11.238;2024-02-04T10:22:00;98697.09;;;12.38;100.00
63907;BME280;50075;49.484;11.238;2024-02-04T10:24:27;98685.69;;;11.89;100.00
63907;BME280;50075;49.484;11.238;2024-02-04T10:26:54;98683.97;;;11.97;100.00
63907;BME280;50075;49.484;11.238;2024-02-04T10:29:20;98676.91;;;11.65;100.00
63907;BME280;50075;49.484;11.238;2024-02-04T10:31:45;98671.00;;;12.41;100.00
63907;BME280;50075;49.484;11.238;2024-02-04T10:34:10;98675.34;;;12.75;100.00
63907;BME280;50075;49.484;11.238;2024-02-04T10:36:36;98681.44;;;12.49;100.00
63907;BME280;50075;49.484;11.238;2024-02-04T10:39:01;98677.84;;;11.77;100.00
63907;BME280;50075;49.484;11.238;2024-02-04T10:41:29;98676.91;;;11.64;100.00
63907;BME280;50075;49.484;11.238;2024-02-04T10:43:55;98672.72;;;12.59;100.00
63907;BME280;50075;49.484;11.238;2024-02-04T10:46:23;98676.22;;;12.71;100.00
63907;BME280;50075;49.484;11.238;2024-02-04T10:48:55;98667.00;;;14.09;100.00
63907;BME280;50075;49.484;11.238;2024-02-04T10:51:24;98660.56;;;12.27;100.00
63907;BME280;50075;49.484;11.238;2024-02-04T10:53:51;98651.88;;;12.22;100.00
63907;BME280;50075;49.484;11.238;2024-02-04T10:56:25;98642.91;;;13.57;100.00
63907;BME280;50075;49.484;11.238;2024-02-04T10:58:51;98657.72;;;13.46;100.00
63907;BME280;50075;49.484;11.238;2024-02-04T11:01:18;98653.44;;;11.54;100.00
63907;BME280;50075;49.484;11.238;2024-02-04T11:03:45;98654.34;;;11.70;100.00
63907;BME280;50075;49.484;11.238;2024-02-04T11:06:11;98658.81;;;12.56;100.00
63907;BME280;50075;49.484;11.238;2024-02-04T11:08:40;98660.41;;;11.68;100.00
63907;BME280;50075;49.484;11.238;2024-02-04T11:11:06;98643.16;;;12.20;100.00
63907;BME280;50075;49.484;11.238;2024-02-04T11:13:32;98646.66;;;12.30;100.00
63907;BME280;50075;49.484;11.238;2024-02-04T11:16:01;98637.88;;;11.89;100.00
63907;BME280;50075;49.484;11.238;2024-02-04T11:21:31;98624.91;;;12.45;100.00
63907;BME280;50075;49.484;11.238;2024-02-04T11:26:28;98624.84;;;11.85;100.00
63907;BME280;50075;49.484;11.238;2024-02-04T11:28:54;98619.66;;;12.00;100.00
63907;BME280;50075;49.484;11.238;2024-02-04T11:31:19;98622.25;;;12.74;100.00
63907;BME280;50075;49.484;11.238;2024-02-04T11:33:45;98616.19;;;12.44;100.00
63907;BME280;50075;49.484;11.238;2024-02-04T11:36:14;98615.31;;;12.59;100.00
63907;BME280;50075;49.484;11.238;2024-02-04T11:38:40;98607.50;;;12.66;100.00
63907;BME280;50075;49.484;11.238;2024-02-04T11:41:06;98607.50;;;12.64;100.00
63907;BME280;50075;49.484;11.238;2024-02-04T11:43:33;98609.09;;;13.15;100.00
63907;BME280;50075;49.484;11.238;2024-02-04T11:45:59;98598.78;;;12.73;100.00
63907;BME280;50075;49.484;11.238;2024-02-04T11:48:35;98599.53;;;13.06;100.00
63907;BME280;50075;49.484;11.238;2024-02-04T11:51:03;98596.00;;;13.18;100.00
63907;BME280;50075;49.484;11.238;2024-02-04T11:53:29;98596.97;;;12.95;100.00
63907;BME280;50075;49.484;11.238;2024-02-04T11:56:00;98583.09;;;12.78;100.00
63907;BME280;50075;49.484;11.238;2024-02-04T11:58:27;98599.63;;;12.72;100.00
63907;BME280;50075;49.484;11.238;2024-02-04T12:00:52;98601.31;;;13.04;100.00
63907;BME280;50075;49.484;11.238;2024-02-04T12:03:32;98589.19;;;12.80;100.00
63907;BME280;50075;49.484;11.238;2024-02-04T12:05:58;98595.38;;;12.32;100.00
63907;BME280;50075;49.484;11.238;2024-02-04T12:08:24;98584.03;;;12.56;100.00
63907;BME280;50075;49.484;11.238;2024-02-04T12:10:50;98591.81;;;12.80;100.00
63907;BME280;50075;49.484;11.238;2024-02-04T12:13:18;98587.31;;;13.19;100.00
63907;BME280;50075;49.484;11.238;2024-02-04T12:15:44;98599.28;;;13.67;100.00
63907;BME280;50075;49.484;11.238;2024-02-04T12:18:11;98592.63;;;12.99;100.00
63907;BME280;50075;49.484;11.238;2024-02-04T12:20:37;98590.09;;;12.61;100.00
63907;BME280;50075;49.484;11.238;2024-02-04T12:23:03;98575.97;;;13.23;100.00
63907;BME280;50075;49.484;11.238;2024-02-04T12:25:30;98582.69;;;13.74;100.00
63907;BME280;50075;49.484;11.238;2024-02-04T12:27:58;98577.06;;;12.61;100.00
63907;BME280;50075;49.484;11.238;2024-02-04T12:30:23;98570.75;;;13.19;100.00
63907;BME280;50075;49.484;11.238;2024-02-04T12:33:02;98569.00;;;13.25;100.00
63907;BME280;50075;49.484;11.238;2024-02-04T12:35:29;98576.81;;;13.28;100.00
63907;BME280;50075;49.484;11.238;2024-02-04T12:37:56;98578.56;;;13.28;100.00
63907;BME280;50075;49.484;11.238;2024-02-04T12:40:25;98569.25;;;12.38;100.00
63907;BME280;50075;49.484;11.238;2024-02-04T12:42:59;98568.16;;;13.19;100.00
63907;BME280;50075;49.484;11.238;2024-02-04T12:45:26;98549.22;;;12.56;100.00